sensor_id;sensor_type;location;lat;lon;timestamp;P1;durP1;ratioP1;P2;durP2;ratioP2
20283;SDS011;10301;50.832;4.080;2023-07-13T00:01:29;11.50;;;2.00;;
20283;SDS011;10301;50.832;4.080;2023-07-13T00:03:56;10.75;;;2.00;;
20283;SDS011;10301;50.832;4.080;2023-07-13T00:06:22;6.13;;;2.10;;
20283;SDS011;10301;50.832;4.080;2023-07-13T00:08:48;12.15;;;3.08;;
20283;SDS011;10301;50.832;4.080;2023-07-13T00:11:14;6.63;;;2.00;;
20283;SDS011;10301;50.832;4.080;2023-07-13T00:13:42;7.82;;;2.00;;
20283;SDS011;10301;50.832;4.080;2023-07-13T00:16:09;8.43;;;2.25;;
20283;SDS011;10301;50.832;4.080;2023-07-13T00:18:36;13.98;;;2.42;;
20283;SDS011;10301;50.832;4.080;2023-07-13T00:21:03;10.90;;;2.22;;
20283;SDS011;10301;50.832;4.080;2023-07-13T00:23:34;10.38;;;2.25;;
20283;SDS011;10301;50.832;4.080;2023-07-13T00:26:02;10.40;;;2.22;;
20283;SDS011;10301;50.832;4.080;2023-07-13T00:28:28;7.63;;;2.45;;
20283;SDS011;10301;50.832;4.080;2023-07-13T00:30:54;6.60;;;2.20;;
20283;SDS011;10301;50.832;4.080;2023-07-13T00:33:20;8.70;;;2.13;;
20283;SDS011;10301;50.832;4.080;2023-07-13T00:35:46;10.55;;;2.30;;
20283;SDS011;10301;50.832;4.080;2023-07-13T00:38:12;10.35;;;2.13;;
20283;SDS011;10301;50.832;4.080;2023-07-13T00:40:38;8.70;;;2.10;;
20283;SDS011;10301;50.832;4.080;2023-07-13T00:43:05;10.98;;;2.70;;
20283;SDS011;10301;50.832;4.080;2023-07-13T00:48:08;9.02;;;2.00;;
20283;SDS011;10301;50.832;4.080;2023-07-13T00:50:55;9.93;;;2.33;;
20283;SDS011;10301;50.832;4.080;2023-07-13T00:53:23;9.25;;;2.60;;
20283;SDS011;10301;50.832;4.080;2023-07-13T00:55:53;8.38;;;2.45;;
20283;SDS011;10301;50.832;4.080;2023-07-13T00:58:21;14.10;;;2.65;;
20283;SDS011;10301;50.832;4.080;2023-07-13T01:00:48;11.18;;;2.20;;
20283;SDS011;10301;50.832;4.080;2023-07-13T01:03:15;15.38;;;2.22;;
20283;SDS011;10301;50.832;4.080;2023-07-13T01:05:42;8.52;;;2.13;;
20283;SDS011;10301;50.832;4.080;2023-07-13T01:08:08;9.00;;;2.20;;
20283;SDS011;10301;50.832;4.080;2023-07-13T01:10:34;9.35;;;2.28;;
20283;SDS011;10301;50.832;4.080;2023-07-13T01:13:10;10.27;;;2.75;;
20283;SDS011;10301;50.832;4.080;2023-07-13T01:15:37;7.90;;;2.30;;
20283;SDS011;10301;50.832;4.080;2023-07-13T01:18:03;10.45;;;2.50;;
20283;SDS011;10301;50.832;4.080;2023-07-13T01:20:31;11.45;;;2.47;;
20283;SDS011;10301;50.832;4.080;2023-07-13T01:23:00;9.30;;;2.50;;
20283;SDS011;10301;50.832;4.080;2023-07-13T01:25:34;11.45;;;2.80;;
20283;SDS011;10301;50.832;4.080;2023-07-13T01:28:01;9.48;;;2.60;;
20283;SDS011;10301;50.832;4.080;2023-07-13T01:30:28;10.82;;;2.28;;
20283;SDS011;10301;50.832;4.080;2023-07-13T01:32:54;11.32;;;3.03;;
20283;SDS011;10301;50.832;4.080;2023-07-13T01:35:20;15.65;;;3.13;;
20283;SDS011;10301;50.832;4.080;2023-07-13T01:37:45;11.60;;;2.83;;
20283;SDS011;10301;50.832;4.080;2023-07-13T01:40:11;11.80;;;3.00;;
20283;SDS011;10301;50.832;4.080;2023-07-13T01:42:37;10.00;;;2.60;;
20283;SDS011;10301;50.832;4.080;2023-07-13T01:45:03;9.80;;;2.75;;
20283;SDS011;10301;50.832;4.080;2023-07-13T01:47:30;8.88;;;2.78;;
20283;SDS011;10301;50.832;4.080;2023-07-13T01:49:56;14.43;;;2.88;;
20283;SDS011;10301;50.832;4.080;2023-07-13T01:52:22;15.45;;;3.03;;
20283;SDS011;10301;50.832;4.080;2023-07-13T01:54:48;13.57;;;3.40;;
20283;SDS011;10301;50.832;4.080;2023-07-13T01:57:14;10.57;;;2.70;;
20283;SDS011;10301;50.832;4.080;2023-07-13T01:59:40;12.02;;;3.22;;
20283;SDS011;10301;50.832;4.080;2023-07-13T02:02:06;12.20;;;2.55;;
20283;SDS011;10301;50.832;4.080;2023-07-13T02:04:31;12.07;;;2.70;;
20283;SDS011;10301;50.832;4.080;2023-07-13T02:06:57;8.45;;;2.92;;
20283;SDS011;10301;50.832;4.080;2023-07-13T02:09:23;12.98;;;3.00;;
20283;SDS011;10301;50.832;4.080;2023-07-13T02:11:49;9.48;;;2.95;;
20283;SDS011;10301;50.832;4.080;2023-07-13T02:14:14;15.88;;;3.10;;
20283;SDS011;10301;50.832;4.080;2023-07-13T02:16:40;10.82;;;3.25;;
20283;SDS011;10301;50.832;4.080;2023-07-13T02:19:06;10.43;;;3.35;;
20283;SDS011;10301;50.832;4.080;2023-07-13T02:21:33;11.93;;;3.38;;
20283;SDS011;10301;50.832;4.080;2023-07-13T02:23:58;10.13;;;3.50;;
20283;SDS011;10301;50.832;4.080;2023-07-13T02:26:24;9.90;;;3.15;;
20283;SDS011;10301;50.832;4.080;2023-07-13T02:28:50;12.15;;;3.03;;
20283;SDS011;10301;50.832;4.080;2023-07-13T02:31:16;12.85;;;3.90;;
20283;SDS011;10301;50.832;4.080;2023-07-13T02:33:42;13.88;;;4.13;;
20283;SDS011;10301;50.832;4.080;2023-07-13T02:36:08;11.18;;;3.17;;
20283;SDS011;10301;50.832;4.080;2023-07-13T02:38:34;12.95;;;3.05;;
20283;SDS011;10301;50.832;4.080;2023-07-13T02:41:04;9.18;;;3.13;;
20283;SDS011;10301;50.832;4.080;2023-07-13T02:43:31;9.93;;;2.90;;
20283;SDS011;10301;50.832;4.080;2023-07-13T02:45:58;10.73;;;3.42;;
20283;SDS011;10301;50.832;4.080;2023-07-13T02:48:29;9.65;;;3.85;;
20283;SDS011;10301;50.832;4.080;2023-07-13T02:50:54;14.57;;;3.65;;
20283;SDS011;10301;50.832;4.080;2023-07-13T02:53:20;17.73;;;3.35;;
20283;SDS011;10301;50.832;4.080;2023-07-13T02:55:46;19.70;;;4.53;;
20283;SDS011;10301;50.832;4.080;2023-07-13T02:58:12;14.10;;;3.60;;
20283;SDS011;10301;50.832;4.080;2023-07-13T03:00:42;12.73;;;3.88;;
20283;SDS011;10301;50.832;4.080;2023-07-13T03:03:08;14.23;;;3.90;;
20283;SDS011;10301;50.832;4.080;2023-07-13T03:05:36;10.30;;;4.28;;
20283;SDS011;10301;50.832;4.080;2023-07-13T03:08:02;13.32;;;4.03;;
20283;SDS011;10301;50.832;4.080;2023-07-13T03:10:29;12.70;;;3.63;;
20283;SDS011;10301;50.832;4.080;2023-07-13T03:12:54;10.32;;;3.17;;
20283;SDS011;10301;50.832;4.080;2023-07-13T03:15:20;10.75;;;3.22;;
20283;SDS011;10301;50.832;4.080;2023-07-13T03:17:46;11.68;;;3.15;;
20283;SDS011;10301;50.832;4.080;2023-07-13T03:20:12;10.82;;;3.33;;
20283;SDS011;10301;50.832;4.080;2023-07-13T03:22:37;14.02;;;3.60;;
20283;SDS011;10301;50.832;4.080;2023-07-13T03:25:03;11.93;;;3.65;;
20283;SDS011;10301;50.832;4.080;2023-07-13T03:27:29;13.57;;;3.58;;
20283;SDS011;10301;50.832;4.080;2023-07-13T03:29:55;10.45;;;3.22;;
20283;SDS011;10301;50.832;4.080;2023-07-13T03:32:21;14.70;;;3.85;;
20283;SDS011;10301;50.832;4.080;2023-07-13T03:34:46;12.85;;;3.20;;
20283;SDS011;10301;50.832;4.080;2023-07-13T03:37:12;13.73;;;3.53;;
20283;SDS011;10301;50.832;4.080;2023-07-13T03:39:38;9.88;;;3.42;;
20283;SDS011;10301;50.832;4.080;2023-07-13T03:42:03;11.15;;;3.75;;
20283;SDS011;10301;50.832;4.080;2023-07-13T03:44:29;12.55;;;3.65;;
20283;SDS011;10301;50.832;4.080;2023-07-13T03:46:55;17.10;;;3.50;;
20283;SDS011;10301;50.832;4.080;2023-07-13T03:49:21;17.08;;;3.40;;
20283;SDS011;10301;50.832;4.080;2023-07-13T03:51:46;10.93;;;3.67;;
20283;SDS011;10301;50.832;4.080;2023-07-13T03:54:12;12.98;;;4.00;;
20283;SDS011;10301;50.832;4.080;2023-07-13T03:56:37;14.95;;;3.60;;
20283;SDS011;10301;50.832;4.080;2023-07-13T03:59:03;13.18;;;3.78;;
20283;SDS011;10301;50.832;4.080;2023-07-13T04:01:29;12.60;;;3.70;;
20283;SDS011;10301;50.832;4.080;2023-07-13T04:03:55;10.00;;;4.25;;
20283;SDS011;10301;50.832;4.080;2023-07-13T04:06:22;10.65;;;3.83;;
20283;SDS011;10301;50.832;4.080;2023-07-13T04:08:50;13.35;;;3.30;;
20283;SDS011;10301;50.832;4.080;2023-07-13T04:11:19;13.98;;;3.78;;
20283;SDS011;10301;50.832;4.080;2023-07-13T04:13:47;15.27;;;3.97;;
20283;SDS011;10301;50.832;4.080;2023-07-13T04:16:13;16.85;;;3.42;;
20283;SDS011;10301;50.832;4.080;2023-07-13T04:18:40;13.07;;;3.50;;
20283;SDS011;10301;50.832;4.080;2023-07-13T04:21:06;15.77;;;4.57;;
20283;SDS011;10301;50.832;4.080;2023-07-13T04:23:33;10.13;;;3.88;;
20283;SDS011;10301;50.832;4.080;2023-07-13T04:25:58;15.77;;;3.95;;
20283;SDS011;10301;50.832;4.080;2023-07-13T04:28:24;19.50;;;5.20;;
20283;SDS011;10301;50.832;4.080;2023-07-13T04:30:50;14.32;;;4.72;;
20283;SDS011;10301;50.832;4.080;2023-07-13T04:33:16;13.48;;;4.28;;
20283;SDS011;10301;50.832;4.080;2023-07-13T04:35:42;10.63;;;3.58;;
20283;SDS011;10301;50.832;4.080;2023-07-13T04:38:08;13.93;;;4.72;;
20283;SDS011;10301;50.832;4.080;2023-07-13T04:40:36;16.33;;;4.15;;
20283;SDS011;10301;50.832;4.080;2023-07-13T04:43:02;15.13;;;3.90;;
20283;SDS011;10301;50.832;4.080;2023-07-13T04:45:28;12.07;;;4.28;;
20283;SDS011;10301;50.832;4.080;2023-07-13T04:47:54;12.45;;;3.92;;
20283;SDS011;10301;50.832;4.080;2023-07-13T04:50:19;15.73;;;3.97;;
20283;SDS011;10301;50.832;4.080;2023-07-13T04:52:48;10.98;;;3.53;;
20283;SDS011;10301;50.832;4.080;2023-07-13T04:55:15;17.92;;;4.03;;
20283;SDS011;10301;50.832;4.080;2023-07-13T04:57:41;14.95;;;4.18;;
20283;SDS011;10301;50.832;4.080;2023-07-13T05:00:07;12.52;;;4.18;;
20283;SDS011;10301;50.832;4.080;2023-07-13T05:02:33;16.95;;;4.50;;
20283;SDS011;10301;50.832;4.080;2023-07-13T05:05:00;14.10;;;4.43;;
20283;SDS011;10301;50.832;4.080;2023-07-13T05:07:26;15.85;;;4.55;;
20283;SDS011;10301;50.832;4.080;2023-07-13T05:09:52;12.35;;;4.13;;
20283;SDS011;10301;50.832;4.080;2023-07-13T05:12:18;16.98;;;5.30;;
20283;SDS011;10301;50.832;4.080;2023-07-13T05:14:44;10.38;;;3.67;;
20283;SDS011;10301;50.832;4.080;2023-07-13T05:17:09;14.40;;;4.07;;
20283;SDS011;10301;50.832;4.080;2023-07-13T05:19:35;16.35;;;3.92;;
20283;SDS011;10301;50.832;4.080;2023-07-13T05:22:01;13.13;;;3.80;;
20283;SDS011;10301;50.832;4.080;2023-07-13T05:24:28;16.52;;;4.57;;
20283;SDS011;10301;50.832;4.080;2023-07-13T05:26:53;16.73;;;4.82;;
20283;SDS011;10301;50.832;4.080;2023-07-13T05:29:20;15.07;;;5.10;;
20283;SDS011;10301;50.832;4.080;2023-07-13T05:31:46;11.48;;;3.75;;
20283;SDS011;10301;50.832;4.080;2023-07-13T05:34:11;14.90;;;4.65;;
20283;SDS011;10301;50.832;4.080;2023-07-13T05:36:37;13.50;;;3.78;;
20283;SDS011;10301;50.832;4.080;2023-07-13T05:39:03;18.17;;;5.00;;
20283;SDS011;10301;50.832;4.080;2023-07-13T05:41:29;12.15;;;3.65;;
20283;SDS011;10301;50.832;4.080;2023-07-13T05:43:55;13.70;;;4.45;;
20283;SDS011;10301;50.832;4.080;2023-07-13T05:46:20;15.13;;;3.63;;
20283;SDS011;10301;50.832;4.080;2023-07-13T05:48:46;9.05;;;3.30;;
20283;SDS011;10301;50.832;4.080;2023-07-13T05:51:12;13.43;;;3.97;;
20283;SDS011;10301;50.832;4.080;2023-07-13T05:53:38;17.67;;;3.88;;
20283;SDS011;10301;50.832;4.080;2023-07-13T05:56:04;15.32;;;4.72;;
20283;SDS011;10301;50.832;4.080;2023-07-13T05:58:30;13.18;;;4.20;;
20283;SDS011;10301;50.832;4.080;2023-07-13T06:01:03;19.60;;;3.72;;
20283;SDS011;10301;50.832;4.080;2023-07-13T06:03:34;11.95;;;4.10;;
20283;SDS011;10301;50.832;4.080;2023-07-13T06:06:00;16.23;;;4.38;;
20283;SDS011;10301;50.832;4.080;2023-07-13T06:08:26;14.38;;;4.50;;
20283;SDS011;10301;50.832;4.080;2023-07-13T06:10:52;15.50;;;4.57;;
20283;SDS011;10301;50.832;4.080;2023-07-13T06:13:18;17.20;;;4.60;;
20283;SDS011;10301;50.832;4.080;2023-07-13T06:15:47;13.88;;;4.10;;
20283;SDS011;10301;50.832;4.080;2023-07-13T06:18:16;16.90;;;4.95;;
20283;SDS011;10301;50.832;4.080;2023-07-13T06:20:42;17.17;;;4.22;;
20283;SDS011;10301;50.832;4.080;2023-07-13T06:23:07;19.35;;;4.15;;
20283;SDS011;10301;50.832;4.080;2023-07-13T06:25:33;15.35;;;4.32;;
20283;SDS011;10301;50.832;4.080;2023-07-13T06:27:59;13.10;;;4.57;;
20283;SDS011;10301;50.832;4.080;2023-07-13T06:30:25;15.82;;;3.88;;
20283;SDS011;10301;50.832;4.080;2023-07-13T06:32:51;12.55;;;4.13;;
20283;SDS011;10301;50.832;4.080;2023-07-13T06:35:17;14.00;;;3.90;;
20283;SDS011;10301;50.832;4.080;2023-07-13T06:37:43;11.82;;;4.18;;
20283;SDS011;10301;50.832;4.080;2023-07-13T06:40:09;16.50;;;4.63;;
20283;SDS011;10301;50.832;4.080;2023-07-13T06:42:35;16.48;;;4.38;;
20283;SDS011;10301;50.832;4.080;2023-07-13T06:45:01;16.52;;;4.40;;
20283;SDS011;10301;50.832;4.080;2023-07-13T06:47:27;15.02;;;5.00;;
20283;SDS011;10301;50.832;4.080;2023-07-13T06:49:52;15.15;;;4.40;;
20283;SDS011;10301;50.832;4.080;2023-07-13T06:52:18;11.65;;;4.18;;
20283;SDS011;10301;50.832;4.080;2023-07-13T06:54:44;16.20;;;4.68;;
20283;SDS011;10301;50.832;4.080;2023-07-13T06:57:09;13.35;;;4.40;;
20283;SDS011;10301;50.832;4.080;2023-07-13T06:59:35;11.95;;;3.95;;
20283;SDS011;10301;50.832;4.080;2023-07-13T07:02:01;12.07;;;3.95;;
20283;SDS011;10301;50.832;4.080;2023-07-13T07:04:26;15.02;;;4.35;;
20283;SDS011;10301;50.832;4.080;2023-07-13T07:06:52;15.95;;;3.72;;
20283;SDS011;10301;50.832;4.080;2023-07-13T07:09:19;16.15;;;4.40;;
20283;SDS011;10301;50.832;4.080;2023-07-13T07:11:45;13.38;;;4.05;;
20283;SDS011;10301;50.832;4.080;2023-07-13T07:14:10;12.65;;;5.13;;
20283;SDS011;10301;50.832;4.080;2023-07-13T07:16:36;14.27;;;4.20;;
20283;SDS011;10301;50.832;4.080;2023-07-13T07:19:02;14.30;;;3.92;;
20283;SDS011;10301;50.832;4.080;2023-07-13T07:21:27;19.35;;;3.78;;
20283;SDS011;10301;50.832;4.080;2023-07-13T07:23:53;13.88;;;3.88;;
20283;SDS011;10301;50.832;4.080;2023-07-13T07:26:19;12.88;;;4.05;;
20283;SDS011;10301;50.832;4.080;2023-07-13T07:28:44;13.57;;;3.95;;
20283;SDS011;10301;50.832;4.080;2023-07-13T07:31:10;17.25;;;4.20;;
20283;SDS011;10301;50.832;4.080;2023-07-13T07:33:36;10.40;;;3.40;;
20283;SDS011;10301;50.832;4.080;2023-07-13T07:36:02;15.07;;;3.85;;
20283;SDS011;10301;50.832;4.080;2023-07-13T07:38:28;15.55;;;4.25;;
20283;SDS011;10301;50.832;4.080;2023-07-13T07:40:54;14.93;;;4.13;;
20283;SDS011;10301;50.832;4.080;2023-07-13T07:43:20;16.58;;;4.65;;
20283;SDS011;10301;50.832;4.080;2023-07-13T07:45:45;11.95;;;4.28;;
20283;SDS011;10301;50.832;4.080;2023-07-13T07:48:11;13.27;;;4.15;;
20283;SDS011;10301;50.832;4.080;2023-07-13T07:50:37;16.25;;;5.15;;
20283;SDS011;10301;50.832;4.080;2023-07-13T07:53:04;13.30;;;7.72;;
20283;SDS011;10301;50.832;4.080;2023-07-13T07:55:33;16.05;;;4.45;;
20283;SDS011;10301;50.832;4.080;2023-07-13T07:58:02;13.27;;;4.60;;
20283;SDS011;10301;50.832;4.080;2023-07-13T08:00:28;14.27;;;4.20;;
20283;SDS011;10301;50.832;4.080;2023-07-13T08:02:56;16.95;;;4.35;;
20283;SDS011;10301;50.832;4.080;2023-07-13T08:05:22;14.30;;;3.95;;
20283;SDS011;10301;50.832;4.080;2023-07-13T08:07:48;13.43;;;4.50;;
20283;SDS011;10301;50.832;4.080;2023-07-13T08:10:14;14.20;;;4.28;;
20283;SDS011;10301;50.832;4.080;2023-07-13T08:12:40;16.10;;;4.03;;
20283;SDS011;10301;50.832;4.080;2023-07-13T08:15:08;14.30;;;4.18;;
20283;SDS011;10301;50.832;4.080;2023-07-13T08:17:36;10.68;;;4.07;;
20283;SDS011;10301;50.832;4.080;2023-07-13T08:20:02;9.52;;;4.60;;
20283;SDS011;10301;50.832;4.080;2023-07-13T08:22:29;11.98;;;4.30;;
20283;SDS011;10301;50.832;4.080;2023-07-13T08:24:54;15.85;;;4.78;;
20283;SDS011;10301;50.832;4.080;2023-07-13T08:27:21;10.88;;;4.35;;
20283;SDS011;10301;50.832;4.080;2023-07-13T08:29:51;12.90;;;10.52;;
20283;SDS011;10301;50.832;4.080;2023-07-13T08:32:17;12.40;;;4.05;;
20283;SDS011;10301;50.832;4.080;2023-07-13T08:34:44;12.80;;;4.13;;
20283;SDS011;10301;50.832;4.080;2023-07-13T08:37:10;13.80;;;4.43;;
20283;SDS011;10301;50.832;4.080;2023-07-13T08:39:36;14.18;;;3.75;;
20283;SDS011;10301;50.832;4.080;2023-07-13T08:42:03;9.93;;;3.30;;
20283;SDS011;10301;50.832;4.080;2023-07-13T08:45:19;11.73;;;3.72;;
20283;SDS011;10301;50.832;4.080;2023-07-13T08:47:30;9.35;;;3.85;;
20283;SDS011;10301;50.832;4.080;2023-07-13T08:50:02;12.07;;;3.30;;
20283;SDS011;10301;50.832;4.080;2023-07-13T08:52:33;10.38;;;2.97;;
20283;SDS011;10301;50.832;4.080;2023-07-13T08:55:05;13.02;;;3.33;;
20283;SDS011;10301;50.832;4.080;2023-07-13T08:57:48;11.50;;;3.83;;
20283;SDS011;10301;50.832;4.080;2023-07-13T09:00:19;15.10;;;3.58;;
20283;SDS011;10301;50.832;4.080;2023-07-13T09:02:56;9.38;;;3.83;;
20283;SDS011;10301;50.832;4.080;2023-07-13T09:05:27;10.30;;;3.47;;
20283;SDS011;10301;50.832;4.080;2023-07-13T09:10:49;11.23;;;4.25;;
20283;SDS011;10301;50.832;4.080;2023-07-13T09:13:40;11.35;;;3.33;;
20283;SDS011;10301;50.832;4.080;2023-07-13T09:16:16;11.45;;;2.92;;
20283;SDS011;10301;50.832;4.080;2023-07-13T09:18:47;10.02;;;3.70;;
20283;SDS011;10301;50.832;4.080;2023-07-13T09:21:30;14.07;;;3.60;;
20283;SDS011;10301;50.832;4.080;2023-07-13T09:26:43;14.35;;;3.20;;
20283;SDS011;10301;50.832;4.080;2023-07-13T09:29:14;10.85;;;3.38;;
20283;SDS011;10301;50.832;4.080;2023-07-13T09:31:47;13.20;;;4.10;;
20283;SDS011;10301;50.832;4.080;2023-07-13T09:34:18;12.68;;;4.53;;
20283;SDS011;10301;50.832;4.080;2023-07-13T09:36:43;12.20;;;4.50;;
20283;SDS011;10301;50.832;4.080;2023-07-13T09:45:02;9.27;;;3.55;;
20283;SDS011;10301;50.832;4.080;2023-07-13T09:47:32;13.00;;;7.57;;
20283;SDS011;10301;50.832;4.080;2023-07-13T09:50:04;10.20;;;2.92;;
20283;SDS011;10301;50.832;4.080;2023-07-13T09:52:50;7.25;;;2.92;;
20283;SDS011;10301;50.832;4.080;2023-07-13T09:55:26;8.98;;;2.65;;
20283;SDS011;10301;50.832;4.080;2023-07-13T10:01:00;11.20;;;3.72;;
20283;SDS011;10301;50.832;4.080;2023-07-13T10:03:31;10.75;;;4.38;;
20283;SDS011;10301;50.832;4.080;2023-07-13T10:08:37;9.88;;;4.05;;
20283;SDS011;10301;50.832;4.080;2023-07-13T10:11:17;12.20;;;4.47;;
20283;SDS011;10301;50.832;4.080;2023-07-13T10:14:01;10.45;;;3.53;;
20283;SDS011;10301;50.832;4.080;2023-07-13T10:16:57;14.70;;;13.30;;
20283;SDS011;10301;50.832;4.080;2023-07-13T10:19:28;10.07;;;3.47;;
20283;SDS011;10301;50.832;4.080;2023-07-13T10:22:02;10.25;;;4.38;;
20283;SDS011;10301;50.832;4.080;2023-07-13T10:24:39;11.10;;;3.28;;
20283;SDS011;10301;50.832;4.080;2023-07-13T10:32:38;13.65;;;4.00;;
20283;SDS011;10301;50.832;4.080;2023-07-13T10:35:04;10.73;;;4.50;;
20283;SDS011;10301;50.832;4.080;2023-07-13T10:40:15;9.55;;;3.35;;
20283;SDS011;10301;50.832;4.080;2023-07-13T10:42:45;8.23;;;3.63;;
20283;SDS011;10301;50.832;4.080;2023-07-13T10:45:15;10.07;;;4.32;;
20283;SDS011;10301;50.832;4.080;2023-07-13T10:47:44;10.73;;;4.35;;
20283;SDS011;10301;50.832;4.080;2023-07-13T10:50:17;10.15;;;3.05;;
20283;SDS011;10301;50.832;4.080;2023-07-13T10:52:48;8.30;;;6.28;;
20283;SDS011;10301;50.832;4.080;2023-07-13T11:03:50;8.30;;;2.78;;
20283;SDS011;10301;50.832;4.080;2023-07-13T11:08:58;12.43;;;3.33;;
20283;SDS011;10301;50.832;4.080;2023-07-13T11:11:43;9.18;;;5.32;;
20283;SDS011;10301;50.832;4.080;2023-07-13T11:14:26;7.38;;;3.00;;
20283;SDS011;10301;50.832;4.080;2023-07-13T11:16:51;7.88;;;2.80;;
20283;SDS011;10301;50.832;4.080;2023-07-13T11:24:28;12.07;;;3.35;;
20283;SDS011;10301;50.832;4.080;2023-07-13T11:33:02;8.95;;;3.72;;
20283;SDS011;10301;50.832;4.080;2023-07-13T11:35:38;8.77;;;3.05;;
20283;SDS011;10301;50.832;4.080;2023-07-13T11:38:32;8.43;;;2.88;;
20283;SDS011;10301;50.832;4.080;2023-07-13T11:41:06;9.85;;;3.35;;
20283;SDS011;10301;50.832;4.080;2023-07-13T11:44:16;10.32;;;2.53;;
20283;SDS011;10301;50.832;4.080;2023-07-13T11:47:10;8.75;;;2.58;;
20283;SDS011;10301;50.832;4.080;2023-07-13T11:49:40;8.63;;;2.53;;
20283;SDS011;10301;50.832;4.080;2023-07-13T11:52:12;9.68;;;2.80;;
20283;SDS011;10301;50.832;4.080;2023-07-13T11:54:51;6.38;;;2.15;;
20283;SDS011;10301;50.832;4.080;2023-07-13T11:59:54;9.77;;;2.80;;
20283;SDS011;10301;50.832;4.080;2023-07-13T12:02:39;5.72;;;2.22;;
20283;SDS011;10301;50.832;4.080;2023-07-13T12:05:15;6.55;;;2.65;;
20283;SDS011;10301;50.832;4.080;2023-07-13T12:07:43;8.82;;;2.60;;
20283;SDS011;10301;50.832;4.080;2023-07-13T12:13:00;9.45;;;3.13;;
20283;SDS011;10301;50.832;4.080;2023-07-13T12:15:34;7.28;;;2.40;;
20283;SDS011;10301;50.832;4.080;2023-07-13T12:18:20;7.47;;;2.92;;
20283;SDS011;10301;50.832;4.080;2023-07-13T12:20:55;4.63;;;2.95;;
20283;SDS011;10301;50.832;4.080;2023-07-13T12:23:25;8.98;;;2.72;;
20283;SDS011;10301;50.832;4.080;2023-07-13T12:25:56;6.95;;;2.78;;
20283;SDS011;10301;50.832;4.080;2023-07-13T12:28:33;5.35;;;2.55;;
20283;SDS011;10301;50.832;4.080;2023-07-13T12:31:02;8.55;;;2.60;;
20283;SDS011;10301;50.832;4.080;2023-07-13T12:33:31;7.43;;;2.83;;
20283;SDS011;10301;50.832;4.080;2023-07-13T12:35:57;9.38;;;2.90;;
20283;SDS011;10301;50.832;4.080;2023-07-13T12:38:27;6.18;;;2.63;;
20283;SDS011;10301;50.832;4.080;2023-07-13T12:40:54;7.93;;;2.97;;
20283;SDS011;10301;50.832;4.080;2023-07-13T12:43:20;8.95;;;2.88;;
20283;SDS011;10301;50.832;4.080;2023-07-13T12:45:57;9.43;;;2.47;;
20283;SDS011;10301;50.832;4.080;2023-07-13T12:48:26;6.03;;;2.70;;
20283;SDS011;10301;50.832;4.080;2023-07-13T12:50:53;7.53;;;2.90;;
20283;SDS011;10301;50.832;4.080;2023-07-13T12:53:21;5.82;;;2.47;;
20283;SDS011;10301;50.832;4.080;2023-07-13T12:55:54;8.57;;;2.90;;
20283;SDS011;10301;50.832;4.080;2023-07-13T13:00:50;6.85;;;2.88;;
20283;SDS011;10301;50.832;4.080;2023-07-13T13:03:22;7.43;;;2.58;;
20283;SDS011;10301;50.832;4.080;2023-07-13T13:06:01;6.93;;;2.38;;
20283;SDS011;10301;50.832;4.080;2023-07-13T13:08:32;8.10;;;2.85;;
20283;SDS011;10301;50.832;4.080;2023-07-13T13:11:00;5.45;;;2.33;;
20283;SDS011;10301;50.832;4.080;2023-07-13T13:13:26;8.60;;;2.55;;
20283;SDS011;10301;50.832;4.080;2023-07-13T13:15:52;5.72;;;2.38;;
20283;SDS011;10301;50.832;4.080;2023-07-13T13:18:19;7.15;;;2.30;;
20283;SDS011;10301;50.832;4.080;2023-07-13T13:20:47;6.57;;;2.40;;
20283;SDS011;10301;50.832;4.080;2023-07-13T13:23:15;6.60;;;2.63;;
20283;SDS011;10301;50.832;4.080;2023-07-13T13:25:44;4.10;;;2.35;;
20283;SDS011;10301;50.832;4.080;2023-07-13T13:28:16;5.65;;;2.20;;
20283;SDS011;10301;50.832;4.080;2023-07-13T13:30:44;5.43;;;2.20;;
20283;SDS011;10301;50.832;4.080;2023-07-13T13:33:11;6.18;;;2.17;;
20283;SDS011;10301;50.832;4.080;2023-07-13T13:35:39;5.13;;;2.20;;
20283;SDS011;10301;50.832;4.080;2023-07-13T13:38:10;4.68;;;2.20;;
20283;SDS011;10301;50.832;4.080;2023-07-13T13:40:37;6.38;;;2.45;;
20283;SDS011;10301;50.832;4.080;2023-07-13T13:43:04;7.38;;;2.30;;
20283;SDS011;10301;50.832;4.080;2023-07-13T13:45:38;6.55;;;2.30;;
20283;SDS011;10301;50.832;4.080;2023-07-13T13:48:04;5.57;;;2.00;;
20283;SDS011;10301;50.832;4.080;2023-07-13T13:50:30;6.47;;;2.20;;
20283;SDS011;10301;50.832;4.080;2023-07-13T13:52:56;5.15;;;2.42;;
20283;SDS011;10301;50.832;4.080;2023-07-13T13:55:21;7.70;;;2.28;;
20283;SDS011;10301;50.832;4.080;2023-07-13T13:57:49;4.80;;;2.00;;
20283;SDS011;10301;50.832;4.080;2023-07-13T14:00:16;6.63;;;2.13;;
20283;SDS011;10301;50.832;4.080;2023-07-13T14:02:46;7.30;;;2.35;;
20283;SDS011;10301;50.832;4.080;2023-07-13T14:05:13;6.47;;;3.08;;
20283;SDS011;10301;50.832;4.080;2023-07-13T14:07:42;6.03;;;2.35;;
20283;SDS011;10301;50.832;4.080;2023-07-13T14:10:13;7.32;;;2.17;;
20283;SDS011;10301;50.832;4.080;2023-07-13T14:12:44;6.57;;;2.30;;
20283;SDS011;10301;50.832;4.080;2023-07-13T14:15:20;8.52;;;2.30;;
20283;SDS011;10301;50.832;4.080;2023-07-13T14:17:48;8.50;;;2.60;;
20283;SDS011;10301;50.832;4.080;2023-07-13T14:20:17;5.80;;;2.35;;
20283;SDS011;10301;50.832;4.080;2023-07-13T14:22:44;6.50;;;3.15;;
20283;SDS011;10301;50.832;4.080;2023-07-13T14:25:11;5.20;;;2.30;;
20283;SDS011;10301;50.832;4.080;2023-07-13T14:27:38;6.15;;;2.63;;
20283;SDS011;10301;50.832;4.080;2023-07-13T14:30:12;4.43;;;1.92;;
20283;SDS011;10301;50.832;4.080;2023-07-13T14:32:42;5.45;;;2.35;;
20283;SDS011;10301;50.832;4.080;2023-07-13T14:35:13;4.45;;;2.33;;
20283;SDS011;10301;50.832;4.080;2023-07-13T14:37:40;6.50;;;4.85;;
20283;SDS011;10301;50.832;4.080;2023-07-13T14:40:17;6.15;;;2.25;;
20283;SDS011;10301;50.832;4.080;2023-07-13T14:42:54;7.28;;;2.50;;
20283;SDS011;10301;50.832;4.080;2023-07-13T14:45:20;7.22;;;1.92;;
20283;SDS011;10301;50.832;4.080;2023-07-13T14:47:46;5.45;;;2.90;;
20283;SDS011;10301;50.832;4.080;2023-07-13T14:50:20;7.18;;;2.28;;
20283;SDS011;10301;50.832;4.080;2023-07-13T14:52:51;4.97;;;3.17;;
20283;SDS011;10301;50.832;4.080;2023-07-13T14:55:17;5.75;;;3.10;;
20283;SDS011;10301;50.832;4.080;2023-07-13T14:57:43;4.70;;;1.98;;
20283;SDS011;10301;50.832;4.080;2023-07-13T15:02:40;4.72;;;1.83;;
20283;SDS011;10301;50.832;4.080;2023-07-13T15:05:14;4.18;;;1.83;;
20283;SDS011;10301;50.832;4.080;2023-07-13T15:07:41;6.03;;;4.82;;
20283;SDS011;10301;50.832;4.080;2023-07-13T15:10:17;5.85;;;2.42;;
20283;SDS011;10301;50.832;4.080;2023-07-13T15:12:47;5.82;;;1.95;;
20283;SDS011;10301;50.832;4.080;2023-07-13T15:15:13;6.03;;;2.70;;
20283;SDS011;10301;50.832;4.080;2023-07-13T15:17:40;3.72;;;2.03;;
20283;SDS011;10301;50.832;4.080;2023-07-13T15:22:49;5.25;;;2.15;;
20283;SDS011;10301;50.832;4.080;2023-07-13T15:25:19;6.63;;;3.15;;
20283;SDS011;10301;50.832;4.080;2023-07-13T15:27:46;5.72;;;2.72;;
20283;SDS011;10301;50.832;4.080;2023-07-13T15:30:13;5.40;;;2.67;;
20283;SDS011;10301;50.832;4.080;2023-07-13T15:32:40;5.00;;;2.20;;
20283;SDS011;10301;50.832;4.080;2023-07-13T15:35:17;5.57;;;2.13;;
20283;SDS011;10301;50.832;4.080;2023-07-13T15:37:48;5.30;;;2.00;;
20283;SDS011;10301;50.832;4.080;2023-07-13T15:40:15;5.40;;;3.50;;
20283;SDS011;10301;50.832;4.080;2023-07-13T15:42:42;6.55;;;3.58;;
20283;SDS011;10301;50.832;4.080;2023-07-13T15:45:22;4.80;;;1.95;;
20283;SDS011;10301;50.832;4.080;2023-07-13T15:47:52;7.75;;;7.05;;
20283;SDS011;10301;50.832;4.080;2023-07-13T15:50:18;7.13;;;2.13;;
20283;SDS011;10301;50.832;4.080;2023-07-13T15:52:50;3.78;;;1.60;;